Time;durP1;ratioP1;P1;durP2;ratioP2;P2;SDS_P1;SDS_P2;PMS_P1;PMS_P2;Temp;Humidity;BMP_temperature;BMP_pressure;BME280_temperature;BME280_humidity;BME280_pressure;Samples;Min_cycle;Max_cycle;Signal;HPM_P1;HPM_P2
2021/07/10 00:02:09;;;;;;;2.97;1.60;;;;;;;18.95;82.13;93376.84;5012964;28;20049;-91
2021/07/10 00:04:35;;;;;;;2.28;1.60;;;;;;;18.80;82.18;93358.59;5012603;28;20046;-90
2021/07/10 00:07:04;;;;;;;3.13;1.63;;;;;;;18.89;81.98;93374.50;5012963;28;20061;-91
2021/07/10 00:09:32;;;;;;;2.55;1.88;;;;;;;18.89;81.87;93366.69;5012786;28;20053;-91
2021/07/10 00:11:58;;;;;;;2.72;2.08;;;;;;;18.94;81.73;93361.47;5012696;28;20046;-90
2021/07/10 00:14:27;;;;;;;2.50;1.83;;;;;;;18.89;81.84;93361.47;5012614;28;20056;-91
2021/07/10 00:16:55;;;;;;;2.42;1.40;;;;;;;18.72;82.03;93339.06;5012983;28;20046;-91
2021/07/10 00:19:22;;;;;;;2.05;1.58;;;;;;;18.81;82.28;93360.16;5012385;28;20556;-90
2021/07/10 00:21:49;;;;;;;2.60;1.63;;;;;;;18.80;82.49;93351.56;5012459;28;20050;-91
2021/07/10 00:24:16;;;;;;;2.35;1.52;;;;;;;18.75;82.93;93345.56;5012477;28;20124;-91
2021/07/10 00:26:42;;;;;;;1.98;1.48;;;;;;;18.67;83.44;93342.44;5012696;28;20092;-91
2021/07/10 00:29:09;;;;;;;3.55;1.77;;;;;;;18.62;83.55;93344.22;5012289;28;20181;-90
2021/07/10 00:31:37;;;;;;;5.07;1.67;;;;;;;18.54;83.54;93350.72;5012126;28;20061;-91
2021/07/10 00:34:04;;;;;;;3.05;1.60;;;;;;;18.40;84.07;93335.59;5012520;28;20101;-91
2021/07/10 00:36:31;;;;;;;2.30;1.40;;;;;;;18.48;83.61;93339.53;5012124;28;20494;-91
2021/07/10 00:38:58;;;;;;;2.35;1.75;;;;;;;18.46;83.93;93335.63;5012374;28;20053;-93
2021/07/10 00:41:25;;;;;;;1.92;1.63;;;;;;;18.45;84.36;93345.22;5012156;28;20089;-92
2021/07/10 00:43:52;;;;;;;1.90;1.23;;;;;;;18.27;84.32;93320.44;5012191;28;20050;-91
2021/07/10 00:46:19;;;;;;;2.03;1.20;;;;;;;18.46;83.91;93333.00;5011800;28;20057;-92
2021/07/10 00:48:48;;;;;;;2.45;1.63;;;;;;;18.37;84.04;93333.50;5011895;28;20057;-92
2021/07/10 00:51:15;;;;;;;3.95;1.85;;;;;;;18.32;84.37;93330.09;5012002;28;20050;-92
2021/07/10 00:53:42;;;;;;;3.03;1.50;;;;;;;18.38;84.42;93329.84;5011939;28;20092;-91
2021/07/10 00:56:09;;;;;;;2.20;1.48;;;;;;;18.36;84.51;93331.94;5011862;28;20100;-91
2021/07/10 00:58:36;;;;;;;2.58;1.50;;;;;;;18.30;84.98;93327.75;5011777;28;20403;-92
2021/07/10 01:01:04;;;;;;;2.38;1.75;;;;;;;18.21;85.18;93317.06;5011938;28;20100;-91
2021/07/10 01:03:33;;;;;;;2.88;1.70;;;;;;;18.24;85.50;93328.78;5011898;28;20042;-90
2021/07/10 01:06:02;;;;;;;4.38;2.10;;;;;;;18.19;85.95;93320.97;5011772;28;20041;-91
2021/07/10 01:08:30;;;;;;;2.65;1.83;;;;;;;18.13;86.36;93333.94;5011607;28;20062;-92
2021/07/10 01:10:59;;;;;;;2.42;1.40;;;;;;;17.95;85.78;93298.72;5011408;28;20088;-91
2021/07/10 01:13:26;;;;;;;3.17;1.20;;;;;;;18.17;86.29;93334.19;5011497;28;20525;-91
2021/07/10 01:15:52;;;;;;;1.52;0.98;;;;;;;18.15;86.26;93333.69;5011475;28;20706;-91
2021/07/10 01:18:19;;;;;;;2.78;1.55;;;;;;;18.11;86.81;93323.00;5011637;28;20062;-91
2021/07/10 01:20:49;;;;;;;2.90;1.73;;;;;;;18.14;87.34;93319.09;5011445;28;20057;-91
2021/07/10 01:23:16;;;;;;;3.35;2.50;;;;;;;18.18;87.14;93324.59;5011573;28;20046;-90
2021/07/10 01:25:44;;;;;;;2.20;1.50;;;;;;;18.13;86.78;93313.13;5011098;28;20057;-92
2021/07/10 01:28:11;;;;;;;2.97;2.03;;;;;;;18.21;87.08;93313.66;5011427;28;20045;-90
2021/07/10 01:30:39;;;;;;;3.08;2.35;;;;;;;18.15;86.65;93305.09;5011239;28;20056;-91
2021/07/10 01:33:06;;;;;;;2.17;1.33;;;;;;;18.17;86.66;93308.22;5011404;28;20432;-92
2021/07/10 01:35:33;;;;;;;3.70;2.67;;;;;;;18.12;85.92;93297.78;5011257;28;20053;-92
2021/07/10 01:38:03;;;;;;;3.03;1.55;;;;;;;18.12;85.84;93287.38;5011175;28;20092;-91
2021/07/10 01:40:30;;;;;;;3.65;1.73;;;;;;;18.11;85.93;93284.03;5011150;28;20392;-91
2021/07/10 01:42:57;;;;;;;3.22;1.60;;;;;;;18.04;86.26;93288.63;5011314;28;20104;-92
2021/07/10 01:45:24;;;;;;;2.90;1.60;;;;;;;18.00;86.46;93301.34;5011100;28;20046;-90
2021/07/10 01:47:52;;;;;;;2.50;1.85;;;;;;;17.99;86.44;93299.78;5010924;28;20512;-91
2021/07/10 01:50:19;;;;;;;1.92;1.50;;;;;;;17.92;86.85;93290.66;5011090;28;20053;-91
2021/07/10 01:52:47;;;;;;;2.55;1.67;;;;;;;17.86;87.21;93295.03;5010887;28;20088;-91
2021/07/10 01:55:16;;;;;;;4.13;1.65;;;;;;;17.78;87.99;93291.13;5010955;28;20384;-91
2021/07/10 01:57:44;;;;;;;2.38;1.63;;;;;;;17.76;88.08;93288.78;5010880;28;20046;-93
2021/07/10 02:00:14;;;;;;;3.67;2.28;;;;;;;17.76;87.94;93293.97;5011042;28;20487;-91
2021/07/10 02:02:42;;;;;;;4.30;2.40;;;;;;;17.75;88.04;93289.03;5011033;28;20418;-91
2021/07/10 02:05:09;;;;;;;3.22;1.88;;;;;;;17.73;88.01;93289.28;5010890;28;20528;-92
2021/07/10 02:07:36;;;;;;;2.42;1.52;;;;;;;17.75;87.94;93295.00;5010814;28;20054;-92
2021/07/10 02:10:06;;;;;;;2.80;1.92;;;;;;;17.74;87.74;93296.03;5012150;28;20116;-94
2021/07/10 02:12:34;;;;;;;2.92;1.75;;;;;;;17.75;88.47;93305.41;5011189;28;20057;-92
2021/07/10 02:15:01;;;;;;;2.35;1.75;;;;;;;17.74;88.86;93306.41;5010748;28;20426;-91
2021/07/10 02:17:28;;;;;;;2.50;1.38;;;;;;;17.73;89.02;93304.09;5010838;28;20057;-91
2021/07/10 02:19:54;;;;;;;2.65;1.48;;;;;;;17.66;88.87;93311.31;5010595;28;20509;-92
2021/07/10 02:22:21;;;;;;;3.05;1.92;;;;;;;17.66;89.22;93301.72;5013375;28;20057;-91
2021/07/10 02:24:48;;;;;;;2.55;1.40;;;;;;;17.65;89.32;93309.75;5014578;28;20049;-91
2021/07/10 02:27:15;;;;;;;6.97;2.30;;;;;;;17.65;89.32;93304.56;5014578;28;20050;-91
2021/07/10 02:29:43;;;;;;;2.95;2.05;;;;;;;17.65;89.15;93302.75;5014487;28;20050;-92
2021/07/10 02:32:10;;;;;;;2.38;2.03;;;;;;;17.63;88.72;93299.59;5014492;28;20057;-91
2021/07/10 02:34:37;;;;;;;2.38;2.05;;;;;;;17.57;88.95;93311.00;5014329;28;20046;-92
2021/07/10 02:37:05;;;;;;;2.92;1.75;;;;;;;17.60;88.92;93313.09;5014656;28;20124;-91
2021/07/10 02:39:31;;;;;;;3.60;1.70;;;;;;;17.57;89.41;93318.78;5014335;28;20057;-93
2021/07/10 02:41:58;;;;;;;3.40;2.63;;;;;;;17.54;89.38;93316.69;5014219;28;20050;-92
2021/07/10 02:44:25;;;;;;;3.25;1.70;;;;;;;17.55;89.46;93319.03;5014312;28;20888;-91
2021/07/10 02:46:55;;;;;;;2.20;1.48;;;;;;;17.59;89.67;93311.53;5014626;28;20475;-92
2021/07/10 02:49:22;;;;;;;2.47;1.85;;;;;;;17.58;89.50;93308.16;5014040;28;20057;-92
2021/07/10 02:51:49;;;;;;;2.65;1.75;;;;;;;17.57;89.63;93316.97;5014034;28;20100;-92
2021/07/10 02:54:16;;;;;;;2.92;2.03;;;;;;;17.59;89.80;93314.13;5014211;28;20057;-92
2021/07/10 02:56:42;;;;;;;1.98;1.25;;;;;;;17.58;88.69;93317.75;5014422;28;20486;-91
2021/07/10 02:59:09;;;;;;;2.67;1.95;;;;;;;17.55;88.21;93315.66;5014116;28;20045;-92
2021/07/10 03:01:36;;;;;;;3.45;1.75;;;;;;;17.43;88.39;93300.25;5013905;28;20054;-92
2021/07/10 03:04:04;;;;;;;3.47;2.15;;;;;;;17.46;88.93;93307.56;5014315;28;20042;-92
2021/07/10 03:06:31;;;;;;;2.63;1.40;;;;;;;17.46;89.12;93310.16;5013936;28;20165;-92
2021/07/10 03:08:58;;;;;;;2.28;2.00;;;;;;;17.41;89.44;93310.88;5013944;28;20050;-91
2021/07/10 03:11:25;;;;;;;2.65;1.65;;;;;;;17.33;88.75;93301.78;5013837;28;20460;-90
2021/07/10 03:13:51;;;;;;;2.47;2.13;;;;;;;17.31;88.91;93298.63;5013923;28;20042;-92
2021/07/10 03:16:18;;;;;;;2.80;1.80;;;;;;;17.33;88.94;93303.56;5014205;28;20050;-91
2021/07/10 03:18:45;;;;;;;3.00;2.33;;;;;;;17.19;89.20;93288.44;5014070;28;20100;-92
2021/07/10 03:21:13;;;;;;;2.78;1.77;;;;;;;17.31;89.37;93308.25;5013738;28;20452;-91
2021/07/10 03:23:40;;;;;;;2.13;1.50;;;;;;;17.29;90.01;93303.28;5013642;28;20061;-92
2021/07/10 03:26:07;;;;;;;3.10;2.35;;;;;;;17.31;89.37;93303.06;5014455;28;20053;-92
2021/07/10 03:28:33;;;;;;;2.72;1.80;;;;;;;17.14;90.00;93274.63;5013773;28;20053;-92
2021/07/10 03:31:00;;;;;;;6.30;2.53;;;;;;;17.31;89.68;93306.41;5014689;28;20077;-93
2021/07/10 03:33:27;;;;;;;11.63;2.20;;;;;;;17.31;89.77;93303.06;5013938;28;20058;-94
2021/07/10 03:35:54;;;;;;;1.95;1.10;;;;;;;17.35;89.61;93304.88;5014530;28;20046;-93
2021/07/10 03:38:22;;;;;;;2.75;1.98;;;;;;;17.34;89.46;93286.97;5014936;28;20046;-93
2021/07/10 03:40:49;;;;;;;2.95;1.75;;;;;;;17.39;89.54;93294.78;5014977;28;20050;-91
2021/07/10 03:43:16;;;;;;;3.50;1.70;;;;;;;17.47;88.99;93299.53;5013555;28;20046;-93
2021/07/10 03:45:43;;;;;;;2.80;1.33;;;;;;;17.48;89.12;93289.91;5018964;28;20096;-93
2021/07/10 03:48:10;;;;;;;3.97;2.35;;;;;;;17.50;89.59;93286.03;5033795;28;20149;-92
2021/07/10 03:50:37;;;;;;;3.50;1.58;;;;;;;17.55;89.79;93294.88;5029405;28;20049;-93
2021/07/10 03:53:04;;;;;;;1.70;0.93;;;;;;;17.49;89.76;93291.47;5013457;28;20041;-93
2021/07/10 03:55:32;;;;;;;3.03;2.10;;;;;;;17.58;88.61;93308.16;5016397;28;20668;-93
2021/07/10 03:58:01;;;;;;;3.55;2.22;;;;;;;17.53;89.12;93284.75;5021046;28;20045;-93
2021/07/10 04:00:28;;;;;;;2.55;1.40;;;;;;;17.67;89.14;93290.28;5023438;28;20054;-93
2021/07/10 04:02:55;;;;;;;4.47;2.17;;;;;;;17.69;89.56;93290.78;5033368;28;20046;-92
2021/07/10 04:05:21;;;;;;;3.40;1.95;;;;;;;17.76;89.23;93293.19;5030888;28;20064;-92
2021/07/10 04:07:49;;;;;;;2.45;1.50;;;;;;;17.81;89.38;93297.63;5012889;28;20042;-92
2021/07/10 04:10:18;;;;;;;2.47;1.42;;;;;;;17.85;89.06;93291.69;5013993;28;20502;-91
2021/07/10 04:12:47;;;;;;;3.95;1.88;;;;;;;17.86;88.94;93274.25;5032401;28;20379;-92
2021/07/10 04:15:15;;;;;;;2.15;1.52;;;;;;;17.99;88.31;93286.78;5031857;28;20135;-92
2021/07/10 04:17:42;;;;;;;2.95;1.92;;;;;;;18.04;88.48;93283.44;5031208;28;20049;-92
2021/07/10 04:20:11;;;;;;;6.50;2.40;;;;;;;18.06;88.90;93278.81;5027056;28;20046;-92
2021/07/10 04:22:38;;;;;;;5.97;2.03;;;;;;;18.10;88.54;93284.28;5031015;28;20425;-92
2021/07/10 04:25:06;;;;;;;1.95;1.35;;;;;;;18.19;87.97;93284.56;5025603;28;20105;-92
2021/07/10 04:27:34;;;;;;;6.00;2.67;;;;;;;18.28;88.00;93286.41;5035370;28;20056;-92
2021/07/10 04:30:05;;;;;;;2.30;1.63;;;;;;;18.34;88.24;93289.03;5052109;28;20060;-93
2021/07/10 04:32:31;;;;;;;3.45;2.40;;;;;;;18.42;88.06;93286.69;5052051;28;20060;-93
2021/07/10 04:34:59;;;;;;;3.60;1.40;;;;;;;18.56;87.05;93286.19;5051904;28;20045;-91
2021/07/10 04:37:26;;;;;;;4.05;1.95;;;;;;;18.61;87.24;93286.22;5040527;28;20056;-91
2021/07/10 04:39:53;;;;;;;3.40;1.50;;;;;;;18.73;86.49;93285.97;5051812;28;20049;-92
2021/07/10 04:42:21;;;;;;;4.78;2.00;;;;;;;18.81;86.15;93289.91;5052058;28;20053;-92
2021/07/10 04:44:47;;;;;;;3.67;2.25;;;;;;;18.87;84.98;93286.25;5051299;28;20045;-92
2021/07/10 04:47:16;;;;;;;7.30;2.25;;;;;;;18.96;85.07;93283.91;5051768;28;20048;-93
2021/07/10 04:49:42;;;;;;;2.50;1.33;;;;;;;19.15;84.07;93291.22;5051510;28;20497;-93
2021/07/10 04:52:09;;;;;;;4.43;2.42;;;;;;;19.28;83.24;93290.72;5051373;28;20052;-93
2021/07/10 04:54:36;;;;;;;3.40;2.05;;;;;;;19.36;81.75;93292.00;5032543;28;20053;-93
2021/07/10 04:57:04;;;;;;;5.60;2.25;;;;;;;19.45;82.07;93289.66;5031881;28;20509;-94
2021/07/10 04:59:30;;;;;;;5.50;2.53;;;;;;;19.57;81.93;93295.34;5031945;28;20046;-91
2021/07/10 05:01:57;;;;;;;4.72;2.25;;;;;;;19.62;81.19;93292.75;5031334;28;20049;-91
2021/07/10 05:04:25;;;;;;;3.65;2.67;;;;;;;19.64;81.12;93282.06;5031381;28;20056;-91
2021/07/10 05:06:52;;;;;;;4.22;3.00;;;;;;;19.84;80.60;93291.66;5031424;28;20490;-93
2021/07/10 05:09:20;;;;;;;8.80;2.80;;;;;;;19.94;80.08;93288.22;5031273;28;20064;-92
2021/07/10 05:11:47;;;;;;;9.25;2.75;;;;;;;19.98;80.40;93284.06;5031211;28;20136;-92
2021/07/10 05:14:14;;;;;;;5.88;2.97;;;;;;;20.13;78.86;93288.44;5040499;28;20041;-91
2021/07/10 05:16:41;;;;;;;5.13;2.33;;;;;;;20.27;78.15;93295.69;5050736;28;20390;-93
2021/07/10 05:19:09;;;;;;;4.85;2.40;;;;;;;20.35;77.25;93289.13;5051043;28;20103;-92
2021/07/10 05:21:37;;;;;;;4.00;2.47;;;;;;;20.55;76.79;93290.88;5050872;28;20479;-93
2021/07/10 05:24:05;;;;;;;5.07;1.83;;;;;;;20.59;77.66;93294.47;5051288;28;20099;-92
2021/07/10 05:26:32;;;;;;;3.45;1.73;;;;;;;20.63;77.05;93294.72;5042585;28;20057;-89
2021/07/10 05:28:59;;;;;;;3.67;2.05;;;;;;;20.68;77.46;93295.47;5011389;28;20049;-90
2021/07/10 05:31:26;;;;;;;1.80;1.42;;;;;;;20.78;75.73;93291.25;5011204;28;20053;-91
2021/07/10 05:33:53;;;;;;;2.10;1.42;;;;;;;20.77;76.08;93287.84;5011640;28;20065;-89
2021/07/10 05:36:20;;;;;;;2.67;1.77;;;;;;;20.77;75.89;93284.44;5011320;28;20490;-89
2021/07/10 05:38:48;;;;;;;3.05;2.45;;;;;;;20.85;76.34;93283.09;5011298;28;20453;-91
2021/07/10 05:41:15;;;;;;;3.13;2.25;;;;;;;20.94;76.12;93284.09;5011227;28;20065;-91
2021/07/10 05:43:42;;;;;;;4.40;1.75;;;;;;;20.87;76.20;93292.22;5011059;28;20396;-91
2021/07/10 05:46:10;;;;;;;2.33;1.50;;;;;;;21.05;75.74;93290.03;5011065;28;20054;-90
2021/07/10 05:48:37;;;;;;;1.90;1.30;;;;;;;21.32;75.33;93292.16;5011017;28;20478;-91
2021/07/10 05:51:03;;;;;;;2.95;1.70;;;;;;;21.53;73.75;93291.97;5010880;28;20505;-92
2021/07/10 05:53:31;;;;;;;2.15;1.70;;;;;;;21.47;73.80;93291.25;5010985;28;20104;-90
2021/07/10 05:55:59;;;;;;;7.32;3.05;;;;;;;21.62;73.49;93292.16;5010228;28;20050;-90
2021/07/10 05:58:26;;;;;;;2.45;1.60;;;;;;;21.75;73.55;93293.34;5010920;28;20457;-91
2021/07/10 06:00:53;;;;;;;2.35;1.67;;;;;;;22.02;72.65;93287.56;5011319;28;20104;-92
2021/07/10 06:03:20;;;;;;;3.05;2.17;;;;;;;22.06;72.44;93287.78;5010928;28;20108;-89
2021/07/10 06:05:46;;;;;;;8.30;2.65;;;;;;;22.22;70.97;93290.22;5010777;28;20049;-91
2021/07/10 06:08:13;;;;;;;5.25;2.40;;;;;;;22.22;70.30;93293.59;5010967;28;20049;-90
2021/07/10 06:10:40;;;;;;;7.35;2.97;;;;;;;22.57;70.06;93295.31;5010939;28;20461;-89
2021/07/10 06:13:08;;;;;;;7.30;4.03;;;;;;;22.90;68.04;93293.53;5010636;28;20050;-90
2021/07/10 06:15:35;;;;;;;5.47;3.55;;;;;;;23.13;65.21;93301.56;5011063;28;20060;-91
2021/07/10 06:18:02;;;;;;;7.32;3.65;;;;;;;23.08;62.88;93299.81;5010775;28;20061;-88
2021/07/10 06:20:29;;;;;;;6.95;3.80;;;;;;;23.37;63.13;93297.31;5010777;28;20053;-90
2021/07/10 06:22:58;;;;;;;8.43;3.90;;;;;;;23.44;62.98;93298.47;5010798;28;20042;-91
2021/07/10 06:25:24;;;;;;;4.70;3.50;;;;;;;23.86;61.80;93301.16;5010707;28;20042;-86
2021/07/10 06:27:51;;;;;;;8.05;3.13;;;;;;;24.13;61.72;93307.50;5028831;28;20061;-90
2021/07/10 06:30:21;;;;;;;7.38;3.00;;;;;;;24.22;59.58;93309.44;5030406;28;20490;-89
2021/07/10 06:32:48;;;;;;;5.60;2.22;;;;;;;24.50;59.83;93301.53;5030292;28;20099;-92
2021/07/10 06:35:16;;;;;;;4.03;2.35;;;;;;;24.42;59.57;93295.13;5030340;28;20457;-86
2021/07/10 06:37:42;;;;;;;6.00;3.03;;;;;;;24.71;58.73;93295.84;5030269;28;20048;-90
2021/07/10 06:40:12;;;;;;;5.95;3.03;;;;;;;24.79;58.80;93295.91;5030698;28;20111;-89
2021/07/10 06:42:39;;;;;;;4.22;2.30;;;;;;;24.75;58.23;93300.19;5030210;28;20053;-90
2021/07/10 06:45:07;;;;;;;5.43;2.38;;;;;;;25.02;57.47;93295.16;5030242;28;20061;-88
2021/07/10 06:47:35;;;;;;;5.90;3.25;;;;;;;24.85;57.60;93306.34;5030446;28;20129;-90
2021/07/10 06:50:03;;;;;;;3.45;2.15;;;;;;;25.09;57.41;93306.81;5030065;28;20493;-89
2021/07/10 06:52:30;;;;;;;6.15;3.35;;;;;;;25.68;56.72;93307.03;5030395;28;20053;-90
2021/07/10 06:54:57;;;;;;;4.70;1.90;;;;;;;26.11;55.41;93300.38;5030143;28;20053;-91
2021/07/10 06:57:24;;;;;;;5.03;2.20;;;;;;;26.28;53.50;93305.72;5030119;28;20547;-88
2021/07/10 06:59:51;;;;;;;4.82;2.65;;;;;;;26.50;53.49;93303.28;5030439;28;20119;-89
2021/07/10 07:02:18;;;;;;;4.05;2.75;;;;;;;26.59;52.96;93295.38;5030522;28;20045;-90
2021/07/10 07:04:46;;;;;;;4.20;1.92;;;;;;;26.52;53.61;93291.34;5030173;28;20461;-89
2021/07/10 07:07:13;;;;;;;4.80;2.40;;;;;;;26.52;53.21;93286.06;5030409;28;20422;-87
2021/07/10 07:09:39;;;;;;;4.28;1.98;;;;;;;26.32;52.88;93297.19;5033375;28;20560;-87
2021/07/10 07:12:07;;;;;;;3.67;2.13;;;;;;;26.60;51.98;93279.28;5033508;28;20498;-88
2021/07/10 07:14:34;;;;;;;4.43;1.40;;;;;;;26.66;50.90;93287.81;5027871;28;20046;-88
2021/07/10 07:17:02;;;;;;;2.08;1.67;;;;;;;26.90;51.93;93295.22;5033695;28;20057;-87
2021/07/10 07:19:30;;;;;;;3.75;1.98;;;;;;;27.25;50.73;93296.34;5033997;28;20077;-87
2021/07/10 07:21:58;;;;;;;2.80;1.58;;;;;;;27.24;50.12;93290.28;5033334;28;20050;-89
2021/07/10 07:24:26;;;;;;;2.88;1.85;;;;;;;27.76;49.97;93295.78;5033413;28;20046;-90
2021/07/10 07:26:53;;;;;;;4.35;2.30;;;;;;;28.33;48.84;93293.81;5029549;28;20100;-86
2021/07/10 07:29:20;;;;;;;10.70;1.77;;;;;;;28.67;48.16;93278.81;5013460;28;20060;-89
2021/07/10 07:31:47;;;;;;;2.90;1.20;;;;;;;29.10;46.18;93292.03;5013330;28;20505;-89
2021/07/10 07:34:13;;;;;;;2.25;1.17;;;;;;;29.20;44.45;93291.63;5013462;28;20608;-83
2021/07/10 07:36:40;;;;;;;2.05;1.30;;;;;;;29.46;45.91;93278.16;5013348;28;20050;-92
2021/07/10 07:39:09;;;;;;;1.73;1.15;;;;;;;29.85;44.14;93287.72;5013380;28;20050;-91
2021/07/10 07:41:36;;;;;;;1.95;1.33;;;;;;;29.85;43.26;93285.81;5013205;28;20054;-90
2021/07/10 07:44:04;;;;;;;1.65;0.90;;;;;;;29.42;43.88;93290.47;5013588;28;20453;-88
2021/07/10 07:46:31;;;;;;;2.00;1.08;;;;;;;29.49;42.64;93268.03;5013315;28;20387;-89
2021/07/10 07:48:58;;;;;;;2.40;1.50;;;;;;;28.71;44.05;93281.59;5013031;28;20486;-87
2021/07/10 07:51:24;;;;;;;2.10;0.93;;;;;;;28.75;44.36;93280.63;5013198;28;20046;-91
2021/07/10 07:53:51;;;;;;;1.85;1.13;;;;;;;28.77;44.46;93273.16;5012974;28;20133;-87
2021/07/10 07:56:19;;;;;;;1.50;0.90;;;;;;;28.05;45.88;93279.16;5012930;28;20058;-83
2021/07/10 07:58:46;;;;;;;4.85;1.50;;;;;;;28.21;44.91;93273.34;5012916;28;20050;-86
2021/07/10 08:01:13;;;;;;;1.33;0.93;;;;;;;28.23;44.59;93273.84;5013406;28;20046;-87
2021/07/10 08:03:40;;;;;;;2.00;0.90;;;;;;;28.20;46.09;93269.16;5012657;28;20057;-88
2021/07/10 08:06:07;;;;;;;1.60;1.00;;;;;;;28.48;44.47;93273.97;5012757;28;20045;-87
2021/07/10 08:08:36;;;;;;;1.25;0.85;;;;;;;28.01;46.04;93263.19;5013035;28;20049;-83
2021/07/10 08:11:04;;;;;;;2.17;1.20;;;;;;;28.12;46.10;93265.47;5021842;28;20103;-87
2021/07/10 08:13:33;;;;;;;1.60;0.73;;;;;;;28.21;45.13;93260.13;5027962;28;20042;-83
2021/07/10 08:16:00;;;;;;;2.03;0.88;;;;;;;28.28;44.38;93271.00;5012623;28;20128;-87
2021/07/10 08:18:27;;;;;;;1.88;1.13;;;;;;;27.76;45.44;93253.53;5012179;28;20049;-88
2021/07/10 08:20:54;;;;;;;1.75;0.98;;;;;;;27.99;45.43;93254.81;5012151;28;20054;-81
2021/07/10 08:23:21;;;;;;;1.48;1.25;;;;;;;28.19;45.01;93257.03;5012679;28;20045;-86
2021/07/10 08:25:48;;;;;;;1.52;0.93;;;;;;;27.60;45.37;93249.53;5012264;28;20046;-81
2021/07/10 08:28:15;;;;;;;2.95;0.95;;;;;;;27.95;45.73;93253.91;5012198;28;20046;-84
2021/07/10 08:30:43;;;;;;;2.30;1.33;;;;;;;27.57;46.40;93254.66;5012218;28;20050;-85
2021/07/10 08:33:12;;;;;;;1.55;0.85;;;;;;;27.66;46.14;93254.66;5012520;28;20050;-86
2021/07/10 08:35:39;;;;;;;1.38;1.15;;;;;;;27.76;46.23;93243.00;5012378;28;20077;-85
2021/07/10 08:38:06;;;;;;;1.75;1.08;;;;;;;27.99;46.30;93241.63;5012336;28;20058;-86
2021/07/10 08:40:33;;;;;;;4.45;2.13;;;;;;;28.01;45.56;93254.50;5012321;28;20049;-87
2021/07/10 08:43:00;;;;;;;2.47;1.50;;;;;;;28.35;45.91;93249.34;5012230;28;20509;-86
2021/07/10 08:45:32;;;;;;;1.92;1.23;;;;;;;28.07;44.85;93247.16;5011978;28;20097;-83
2021/07/10 08:48:02;;;;;;;2.90;1.80;;;;;;;28.21;45.09;93252.22;5012406;28;20395;-84
2021/07/10 08:50:30;;;;;;;1.25;0.82;;;;;;;27.91;45.43;93250.34;5011872;28;20053;-82
2021/07/10 08:52:57;;;;;;;1.35;0.82;;;;;;;28.26;45.60;93249.41;5012402;28;20049;-86
2021/07/10 08:55:24;;;;;;;1.33;0.80;;;;;;;27.98;45.09;93241.94;5011908;28;20046;-85
2021/07/10 08:57:52;;;;;;;2.10;1.10;;;;;;;28.32;45.02;93239.44;5011748;28;20057;-85
2021/07/10 09:00:22;;;;;;;1.67;1.25;;;;;;;28.41;44.60;93237.50;5012138;28;20050;-85
2021/07/10 09:02:52;;;;;;;2.40;0.93;;;;;;;28.93;44.21;93235.56;5011946;28;20076;-86
2021/07/10 09:05:21;;;;;;;1.67;0.93;;;;;;;28.96;43.52;93242.09;5011852;28;20054;-80
2021/07/10 09:08:20;;;;;;;1.73;0.82;;;;;;;29.08;43.64;93245.53;5011608;28;20049;-86
2021/07/10 09:10:50;;;;;;;1.88;0.98;;;;;;;28.64;43.02;93237.97;5011861;28;20050;-84
2021/07/10 09:13:18;;;;;;;7.03;1.23;;;;;;;28.41;43.84;93234.84;5012059;28;20062;-80
2021/07/10 09:15:45;;;;;;;1.73;1.58;;;;;;;28.31;44.66;93237.91;5011742;28;20049;-85
2021/07/10 09:18:14;;;;;;;2.03;1.42;;;;;;;28.52;44.04;93235.25;5011554;28;20078;-85
2021/07/10 09:20:45;;;;;;;1.40;0.98;;;;;;;28.73;43.85;93235.25;5011359;28;20494;-86
2021/07/10 09:23:38;;;;;;;1.63;1.08;;;;;;;28.55;43.56;93239.88;5011565;28;20060;-81
2021/07/10 09:26:17;;;;;;;1.88;1.05;;;;;;;28.91;43.38;93243.03;5011765;28;20481;-82
2021/07/10 09:28:44;;;;;;;1.73;0.95;;;;;;;28.68;43.11;93233.56;5031132;28;20055;-86
2021/07/10 09:31:16;;;;;;;1.73;0.85;;;;;;;28.50;43.80;93238.22;5030799;28;20099;-83
2021/07/10 09:33:42;;;;;;;1.75;1.15;;;;;;;28.33;45.12;93233.06;5031138;28;20049;-87
2021/07/10 09:36:11;;;;;;;1.90;1.33;;;;;;;28.25;44.76;93235.44;5030968;28;20520;-84
2021/07/10 09:38:37;;;;;;;6.28;1.33;;;;;;;28.59;44.50;93234.75;5031193;28;20049;-86
2021/07/10 09:41:08;;;;;;;1.27;0.70;;;;;;;29.18;42.67;93231.13;5030827;28;20049;-83
2021/07/10 09:43:36;;;;;;;1.40;0.98;;;;;;;29.07;43.28;93235.28;5030854;28;20489;-86
2021/07/10 09:46:08;;;;;;;3.03;1.40;;;;;;;28.90;43.76;93230.94;5030827;28;20544;-87
2021/07/10 09:48:37;;;;;;;3.58;1.02;;;;;;;28.86;43.37;93236.06;5031197;28;20041;-80
2021/07/10 09:51:25;;;;;;;2.08;1.17;;;;;;;28.51;43.80;93221.25;5030746;28;20405;-83
2021/07/10 09:54:05;;;;;;;3.03;1.40;;;;;;;28.75;43.11;93222.50;5030858;28;20068;-87
2021/07/10 09:56:35;;;;;;;1.92;1.23;;;;;;;28.76;43.34;93216.09;5030753;28;20045;-82
2021/07/10 09:59:17;;;;;;;3.03;1.00;;;;;;;28.74;42.95;93199.03;5031089;28;20045;-83
2021/07/10 10:01:45;;;;;;;2.35;1.27;;;;;;;29.06;43.56;93212.56;5030897;28;20520;-81
2021/07/10 10:04:23;;;;;;;2.20;1.58;;;;;;;29.01;43.17;93223.38;5027899;28;20046;-88
2021/07/10 10:06:52;;;;;;;4.97;2.13;;;;;;;29.23;42.08;93214.28;5030597;28;20091;-83
2021/07/10 10:09:21;;;;;;;3.53;2.47;;;;;;;29.19;43.02;93223.94;5030588;28;20422;-85
2021/07/10 10:11:58;;;;;;;2.03;1.33;;;;;;;29.20;42.50;93217.56;5030709;28;20124;-84
2021/07/10 10:14:26;;;;;;;1.80;0.98;;;;;;;29.31;42.58;93226.66;5019752;28;20103;-84
2021/07/10 10:16:53;;;;;;;2.13;1.33;;;;;;;29.13;41.79;93223.41;5010761;28;20518;-80
2021/07/10 10:19:22;;;;;;;1.70;0.93;;;;;;;29.41;41.82;93216.72;5010954;28;20392;-85
2021/07/10 10:21:52;;;;;;;1.85;0.95;;;;;;;29.38;41.73;93231.38;5010824;28;20054;-81
2021/07/10 10:24:20;;;;;;;2.00;1.13;;;;;;;29.15;41.91;93217.78;5010941;28;20050;-84
2021/07/10 10:26:48;;;;;;;1.35;0.73;;;;;;;29.69;40.36;93214.25;5020794;28;20053;-85
2021/07/10 10:29:16;;;;;;;2.35;1.35;;;;;;;29.50;39.59;93214.00;5030526;28;20563;-81
2021/07/10 10:31:44;;;;;;;1.92;0.82;;;;;;;29.32;39.95;93222.13;5030208;28;20501;-81
2021/07/10 10:34:11;;;;;;;2.45;0.90;;;;;;;29.18;40.52;93206.53;5030379;28;20049;-83
2021/07/10 10:36:41;;;;;;;1.42;0.90;;;;;;;29.10;39.92;93205.53;5030826;28;20065;-83
2021/07/10 10:39:12;;;;;;;2.00;1.33;;;;;;;29.19;40.29;93211.50;5030440;28;20054;-81
2021/07/10 10:41:39;;;;;;;1.70;1.02;;;;;;;29.15;41.10;93210.63;5030427;28;20049;-83
2021/07/10 10:44:07;;;;;;;1.90;1.13;;;;;;;29.36;39.92;93206.34;5033622;28;20072;-81
2021/07/10 10:46:44;;;;;;;1.73;0.95;;;;;;;29.37;40.96;93200.72;5034033;28;20508;-81
2021/07/10 10:49:34;;;;;;;1.73;1.20;;;;;;;28.99;38.76;93180.59;5034047;28;20516;-83
2021/07/10 10:52:19;;;;;;;1.55;0.93;;;;;;;29.44;38.55;93205.50;5034101;28;20103;-83
2021/07/10 10:54:50;;;;;;;1.70;1.27;;;;;;;29.47;39.57;93192.38;5033887;28;20056;-84
2021/07/10 10:57:17;;;;;;;5.22;1.65;;;;;;;29.30;40.02;93182.75;5033865;28;20100;-82
2021/07/10 10:59:45;;;;;;;2.17;0.98;;;;;;;29.59;40.40;93190.84;5034005;28;20050;-83
2021/07/10 11:02:41;;;;;;;2.08;1.10;;;;;;;29.55;40.90;93182.03;5033845;28;20060;-84
2021/07/10 11:05:08;;;;;;;3.17;1.77;;;;;;;29.93;41.13;93183.56;5011846;28;20049;-82
2021/07/10 11:07:36;;;;;;;2.08;1.40;;;;;;;29.57;40.44;93177.94;5033917;28;20448;-82
2021/07/10 11:10:13;;;;;;;3.08;1.60;;;;;;;29.38;41.23;93183.75;5033777;28;20057;-81
2021/07/10 11:12:57;;;;;;;1.88;1.08;;;;;;;29.17;41.29;93175.91;5033614;28;20416;-82
2021/07/10 11:15:44;;;;;;;1.97;1.10;;;;;;;29.38;40.88;93164.47;5033223;28;20183;-81
2021/07/10 11:18:28;;;;;;;1.50;1.17;;;;;;;29.31;40.29;93180.88;5033437;28;20061;-81
2021/07/10 11:20:56;;;;;;;2.00;1.20;;;;;;;28.95;42.12;93172.56;5033618;28;20452;-82
2021/07/10 11:23:30;;;;;;;1.63;1.08;;;;;;;29.08;41.52;93160.16;5033381;28;20054;-83
2021/07/10 11:26:11;;;;;;;2.38;1.42;;;;;;;29.29;40.12;93154.00;5036281;28;20057;-80
2021/07/10 11:28:55;;;;;;;2.05;1.20;;;;;;;29.25;39.36;93155.75;5035181;28;20818;-83
2021/07/10 11:31:27;;;;;;;1.38;1.08;;;;;;;29.06;40.61;93160.47;5049010;28;20135;-83
2021/07/10 11:34:00;;;;;;;1.73;0.70;;;;;;;29.67;39.83;93152.91;5048192;28;20049;-82
2021/07/10 11:36:58;;;;;;;1.80;1.15;;;;;;;29.51;39.49;93163.41;5033197;28;20041;-81
2021/07/10 11:39:42;;;;;;;2.15;1.20;;;;;;;29.90;39.93;93141.88;5033225;28;20056;-81
2021/07/10 11:42:51;;;;;;;2.92;1.42;;;;;;;29.76;38.71;93150.13;5033152;28;20053;-82